createdAt,value
2022-11-26T00:01:15.082Z,101824.72
2022-11-26T00:06:25.881Z,101765.28
2022-11-26T00:11:22.921Z,101811.91
2022-11-26T00:16:20.880Z,101854.31
2022-11-26T00:21:21.926Z,101781.13
2022-11-26T00:26:21.849Z,101849.28
2022-11-26T00:31:19.384Z,101843.38
2022-11-26T00:36:21.407Z,101808.13
2022-11-26T00:41:21.074Z,101860.91
2022-11-26T00:46:21.259Z,101803.28
2022-11-26T00:51:23.180Z,101853.44
2022-11-26T00:56:21.403Z,101794.09
2022-11-26T01:01:21.482Z,101844.22
2022-11-26T01:06:22.535Z,101796.00
2022-11-26T01:11:22.862Z,101868.50
2022-11-26T01:16:24.256Z,101869.38
2022-11-26T01:21:26.421Z,101802.09
2022-11-26T01:26:25.217Z,101827.31
2022-11-26T01:31:25.081Z,101872.19
2022-11-26T01:36:27.344Z,101862.72
2022-11-26T01:41:42.561Z,101832.53
2022-11-26T01:46:39.960Z,101866.25
2022-11-26T01:51:37.916Z,101883.63
2022-11-26T01:56:39.180Z,101870.66
2022-11-26T02:01:36.656Z,101898.22
2022-11-26T02:06:34.707Z,101878.41
2022-11-26T02:11:32.579Z,101901.47
2022-11-26T02:16:53.996Z,101867.72
2022-11-26T02:22:01.579Z,101838.91
2022-11-26T02:27:33.016Z,101904.16
2022-11-26T02:32:37.690Z,101904.03
2022-11-26T02:37:39.896Z,101874.34
2022-11-26T02:42:37.354Z,101799.09
2022-11-26T02:47:37.762Z,101857.50
2022-11-26T02:52:35.390Z,101888.25
2022-11-26T02:57:36.851Z,101902.75
2022-11-26T03:02:40.632Z,101902.63
2022-11-26T03:07:38.416Z,101868.06
2022-11-26T03:12:35.422Z,101913.69
2022-11-26T03:17:32.488Z,101781.72
2022-11-26T03:22:30.271Z,101910.09
2022-11-26T03:27:27.695Z,101927.34
2022-11-26T03:32:24.684Z,101886.81
2022-11-26T03:37:21.754Z,101923.09
2022-11-26T03:42:19.456Z,101941.41
2022-11-26T03:47:16.584Z,101975.03
2022-11-26T03:52:13.420Z,101941.41
2022-11-26T03:57:10.421Z,101917.44
2022-11-26T04:02:08.268Z,101989.19
2022-11-26T04:07:10.163Z,101915.94
2022-11-26T04:12:10.311Z,101966.78
2022-11-26T04:17:07.958Z,101998.81
2022-11-26T04:22:04.996Z,101868.69
2022-11-26T04:27:05.091Z,101980.03
2022-11-26T04:32:02.103Z,101955.91
2022-11-26T04:36:59.723Z,102019.00
2022-11-26T04:41:56.807Z,101999.06
2022-11-26T04:46:53.897Z,101997.50
2022-11-26T04:51:50.866Z,102013.06
2022-11-26T04:56:49.217Z,102031.19
2022-11-26T05:01:49.152Z,102061.50
2022-11-26T05:06:46.407Z,101999.44
2022-11-26T05:11:43.677Z,102071.13
2022-11-26T05:16:41.641Z,102065.22
2022-11-26T05:21:38.676Z,102043.81
2022-11-26T05:26:35.757Z,102020.47
2022-11-26T05:31:36.061Z,102013.72
2022-11-26T05:36:38.186Z,102037.22
2022-11-26T05:41:37.976Z,102094.41
2022-11-26T05:46:36.615Z,102087.59
2022-11-26T05:51:37.510Z,102034.09
2022-11-26T05:56:34.763Z,102008.38
2022-11-26T06:01:32.098Z,102113.75
2022-11-26T06:06:29.550Z,102099.22
2022-11-26T06:11:30.166Z,102096.50
2022-11-26T06:16:27.104Z,102040.53
2022-11-26T06:21:24.180Z,102152.91
2022-11-26T06:26:21.496Z,102139.72
2022-11-26T06:31:19.532Z,102133.81
2022-11-26T06:36:16.634Z,102162.44
2022-11-26T06:41:13.979Z,102186.59
2022-11-26T06:46:11.570Z,102158.19
2022-11-26T06:51:12.505Z,102181.56
2022-11-26T06:56:17.743Z,102148.72
2022-11-26T07:01:17.631Z,102146.22
2022-11-26T07:06:26.726Z,102113.34
2022-11-26T07:11:29.209Z,102122.84
2022-11-26T07:16:26.357Z,102137.38
2022-11-26T07:21:25.088Z,102204.66
2022-11-26T07:26:23.871Z,102176.16
2022-11-26T07:31:22.267Z,102205.53
2022-11-26T07:36:21.230Z,102222.66
2022-11-26T07:41:20.016Z,102171.75
2022-11-26T07:46:19.342Z,102214.78
2022-11-26T07:51:18.980Z,102212.00
2022-11-26T07:56:16.689Z,102219.81
2022-11-26T08:01:16.444Z,102237.00
2022-11-26T08:06:15.955Z,102217.06
2022-11-26T08:11:17.767Z,102233.47
2022-11-26T08:16:15.964Z,102195.38
2022-11-26T08:21:13.031Z,102160.72
2022-11-26T08:31:29.811Z,102247.94
2022-11-26T08:36:29.556Z,102215.09
2022-11-26T08:41:26.793Z,102272.09
2022-11-26T08:46:25.182Z,102257.38
2022-11-26T08:51:24.113Z,102187.28
2022-11-26T08:56:21.608Z,102218.94
2022-11-26T09:01:23.023Z,102216.31
2022-11-26T09:06:25.054Z,102275.72
2022-11-26T09:11:22.063Z,102235.72
2022-11-26T09:16:19.311Z,102188.00
2022-11-26T09:21:16.454Z,102224.00
2022-11-26T09:26:14.252Z,102273.84
2022-11-26T09:31:11.133Z,102268.34
2022-11-26T09:36:10.342Z,102160.00
2022-11-26T09:41:19.038Z,102247.16
2022-11-26T09:46:23.237Z,102259.84
2022-11-26T09:51:21.276Z,102258.81
2022-11-26T09:56:24.576Z,102222.53
2022-11-26T10:01:22.870Z,102234.59
2022-11-26T10:06:34.855Z,102269.84
2022-11-26T10:11:36.707Z,102261.94
2022-11-26T10:16:43.854Z,102186.75
2022-11-26T10:21:58.673Z,102243.75
2022-11-26T10:26:59.599Z,102227.22
2022-11-26T10:32:01.716Z,102263.09
2022-11-26T10:36:58.847Z,102232.41
2022-11-26T10:41:56.024Z,102244.16
2022-11-26T10:47:22.434Z,102135.97
2022-11-26T10:52:23.003Z,102196.03
2022-11-26T10:57:20.072Z,102240.38
2022-11-26T11:02:33.107Z,102227.63
2022-11-26T11:07:40.964Z,102218.28
2022-11-26T11:12:39.290Z,102240.50
2022-11-26T11:17:39.506Z,102160.56
2022-11-26T11:22:36.427Z,102226.13
2022-11-26T11:27:39.472Z,102213.03
2022-11-26T11:32:39.154Z,102230.28
2022-11-26T11:37:48.364Z,102146.91
2022-11-26T11:42:51.546Z,102212.34
2022-11-26T11:47:52.766Z,102181.38
2022-11-26T11:53:22.501Z,102206.53
2022-11-26T11:58:56.525Z,102179.97
2022-11-26T12:04:16.418Z,102190.75
2022-11-26T12:09:25.633Z,102238.09
2022-11-26T12:14:25.912Z,102223.59
2022-11-26T12:19:34.836Z,102160.91
2022-11-26T12:24:39.489Z,102170.66
2022-11-26T12:29:42.172Z,102190.03
2022-11-26T12:34:46.765Z,102133.28
2022-11-26T12:39:53.869Z,102195.94
2022-11-26T12:45:16.127Z,102194.44
2022-11-26T12:50:23.357Z,102170.56
2022-11-26T12:55:26.705Z,102162.03
2022-11-26T13:00:31.386Z,102177.75
2022-11-26T13:05:35.960Z,102188.69
2022-11-26T13:11:05.933Z,102226.00
2022-11-26T13:16:15.147Z,102237.50
2022-11-26T13:21:33.566Z,102238.56
2022-11-26T13:27:10.739Z,102249.28
2022-11-26T13:32:33.817Z,102219.47
2022-11-26T13:37:58.985Z,102241.38
2022-11-26T13:43:41.761Z,102149.06
2022-11-26T13:48:48.979Z,102265.78
2022-11-26T13:53:52.294Z,102263.28
2022-11-26T13:58:53.985Z,102201.94
2022-11-26T14:03:51.235Z,102284.31
2022-11-26T14:08:51.634Z,102295.75
2022-11-26T14:14:27.176Z,102300.25
2022-11-26T14:20:00.337Z,102248.56
2022-11-26T14:25:06.709Z,102289.28
2022-11-26T14:30:26.034Z,102282.53
2022-11-26T14:35:32.471Z,102300.06
2022-11-26T14:40:34.578Z,102209.50
2022-11-26T14:45:32.227Z,102314.38
2022-11-26T14:50:31.018Z,102295.47
2022-11-26T14:55:30.384Z,102305.91
2022-11-26T15:00:31.271Z,102263.56
2022-11-26T15:05:30.147Z,102322.38
2022-11-26T15:10:28.201Z,102321.50
2022-11-26T15:15:25.129Z,102336.38
2022-11-26T15:20:23.742Z,102339.84
2022-11-26T15:25:24.041Z,102280.16
2022-11-26T15:30:22.973Z,102339.00
2022-11-26T15:35:19.895Z,102346.81
2022-11-26T15:40:23.571Z,102337.38
2022-11-26T15:45:23.016Z,102250.91
2022-11-26T15:50:27.061Z,102315.97
2022-11-26T15:55:29.943Z,102330.91
2022-11-26T16:00:33.315Z,102337.00
2022-11-26T16:05:34.719Z,102313.69
2022-11-26T16:10:35.020Z,102363.16
2022-11-26T16:15:32.396Z,102340.06
2022-11-26T16:20:30.232Z,102344.47
2022-11-26T16:25:29.922Z,102349.66
2022-11-26T16:30:27.833Z,102279.50
2022-11-26T16:35:44.825Z,102353.91
2022-11-26T16:40:47.677Z,102383.38
2022-11-26T16:45:49.353Z,102378.22
2022-11-26T16:50:47.397Z,102356.63
2022-11-26T16:55:44.800Z,102372.22
2022-11-26T17:00:41.956Z,102397.50
2022-11-26T17:05:41.350Z,102387.19
2022-11-26T17:10:38.634Z,102302.56
2022-11-26T17:15:35.651Z,102408.41
2022-11-26T17:20:35.161Z,102377.13
2022-11-26T17:25:32.860Z,102409.13
2022-11-26T17:30:30.552Z,102424.75
2022-11-26T17:35:30.100Z,102384.81
2022-11-26T17:40:31.359Z,102395.22
2022-11-26T17:45:34.380Z,102396.00
2022-11-26T17:50:33.732Z,102412.50
2022-11-26T17:55:32.517Z,102427.19
2022-11-26T18:00:30.552Z,102395.03
2022-11-26T18:05:37.880Z,102410.63
2022-11-26T18:10:41.543Z,102406.31
2022-11-26T18:15:38.661Z,102363.00
2022-11-26T18:20:43.745Z,102307.56
2022-11-26T18:25:45.681Z,102417.56
2022-11-26T18:30:43.875Z,102396.84
2022-11-26T18:35:43.596Z,102405.50
2022-11-26T18:40:45.483Z,102428.88
2022-11-26T18:45:43.026Z,102414.25
2022-11-26T18:50:42.391Z,102372.63
2022-11-26T18:55:39.724Z,102406.44
2022-11-26T19:00:37.051Z,102423.78
2022-11-26T19:05:34.454Z,102397.84
2022-11-26T19:10:37.135Z,102468.09
2022-11-26T19:15:44.175Z,102369.38
2022-11-26T19:20:48.849Z,102443.88
2022-11-26T19:25:47.102Z,102474.34
2022-11-26T19:30:44.391Z,102438.00
2022-11-26T19:35:41.957Z,102459.66
2022-11-26T19:40:41.477Z,102487.44
2022-11-26T19:45:39.240Z,102463.25
2022-11-26T19:50:36.464Z,102424.28
2022-11-26T19:55:35.005Z,102444.25
2022-11-26T20:00:32.260Z,102416.63
2022-11-26T20:05:31.924Z,102488.63
2022-11-26T20:10:31.533Z,102515.56
2022-11-26T20:15:28.589Z,102493.91
2022-11-26T20:20:25.638Z,102512.94
2022-11-26T20:25:25.353Z,102480.81
2022-11-26T20:30:24.680Z,102479.09
2022-11-26T20:35:24.806Z,102459.19
2022-11-26T20:40:25.292Z,102473.00
2022-11-26T20:45:22.870Z,102428.78
2022-11-26T20:50:19.917Z,102516.38
2022-11-26T20:55:21.225Z,102490.31
2022-11-26T21:00:22.455Z,102516.38
2022-11-26T21:05:31.808Z,102453.19
2022-11-26T21:10:31.451Z,102519.97
2022-11-26T21:15:29.133Z,102516.50
2022-11-26T21:20:26.545Z,102499.16
2022-11-26T21:25:23.558Z,102507.91
2022-11-26T21:30:20.753Z,102448.16
2022-11-26T21:35:19.646Z,102487.22
2022-11-26T21:40:17.208Z,102506.25
2022-11-26T21:45:17.140Z,102469.00
2022-11-26T21:50:14.215Z,102493.25
2022-11-26T21:55:37.704Z,102524.50
2022-11-26T22:00:34.821Z,102505.38
2022-11-26T22:05:31.883Z,102520.13
2022-11-26T22:10:35.859Z,102469.84
2022-11-26T22:15:33.460Z,102524.44
2022-11-26T22:20:30.867Z,102461.09
2022-11-26T22:25:27.801Z,102472.31
2022-11-26T22:30:25.429Z,102506.22
2022-11-26T22:35:22.513Z,102518.34
2022-11-26T22:40:20.039Z,102472.31
2022-11-26T22:45:17.169Z,102514.88
2022-11-26T22:50:15.043Z,102511.47
2022-11-26T22:55:12.127Z,102468.94
2022-11-26T23:00:13.137Z,102482.00
2022-11-26T23:05:10.520Z,102492.44
2022-11-26T23:10:08.870Z,102495.03
2022-11-26T23:15:06.619Z,102480.25
2022-11-26T23:20:04.079Z,102451.72
2022-11-26T23:25:01.015Z,102445.66
2022-11-26T23:29:59.468Z,102496.06
2022-11-26T23:34:56.321Z,102491.78
2022-11-26T23:39:53.321Z,102457.94
2022-11-26T23:44:50.179Z,102458.78
2022-11-26T23:49:47.865Z,102414.56
2022-11-26T23:54:45.259Z,102447.56
2022-11-26T23:59:42.368Z,102431.94
